Sterling, MI (48659)

3:08 AM EDT on August 30, 2014 (GMT -0400)
Pinconning farm country, (Pintucky Hawg Farm) | Change Station
CLOSE
Current Station
Personal Weather Station
Location: Pinconning, MI
Elevation: 623 ft
Nearby Weather Stations

Elev 623 ft 43.82 °N, 84.03 °W | Updated 5 minutes ago

Mostly Cloudy
Mostly Cloudy
62.1 °F
Feels Like 62.1 °F
N
0.0
Wind Variable Wind from ESE

Today
High -- | Low -- °F
--% Chance of Precip.
Yesterday
High -- | Low -- °F
Precip. -- in
6:56 AM 8:15 PM
Waxing Crescent, 19% visible
Pressure 29.94 in
Visibility 10.0 miles
Clouds Scattered Clouds 4700 ft
Dew Point 61 °F
Humidity 97%
Rainfall 0.00 in
Snow Depth Not available.
UV 0 out of 12
Pollen 6.30 out of 12
PM2.5 Moderate
Flu Activity Not available.
METAR KIKW 300653Z AUTO 17003KT 10SM SCT047 20/16 A2994 RMK AO2 T02040157

More Conditions Fewer Conditions

Pressure 29.94 in
Visibility 10.0 miles
Clouds Scattered Clouds 4700 ft
Dew Point 61 °F
Humidity 97%
Rainfall 0.00 in
Snow Depth Not available.
UV 0 out of 12
Pollen 6.30 out of 12
PM2.5 Moderate
Flu Activity Not available.
METAR KIKW 300653Z AUTO 17003KT 10SM SCT047 20/16 A2994 RMK AO2 T02040157

More Conditions Fewer Conditions

Nowcast | as of 3:00 am EDT on August 30, 2014

At 4 am...mostly cloudy. Scattered rain showers and isolated thunderstorms. Temperature 66. Light winds. At 6 am...mostly cloudy. Scattered rain showers and isolated thunderstorms. Temperature 66. Light winds. At 8 am...mostly cloudy. Scattered rain showers and isolated thunderstorms. Temperature 67. Light winds. At 10 am...mostly cloudy. Scattered rain showers and isolated thunderstorms. Temperature 71. South winds 5 mph.

×

10-Day Weather Forecast

Almanac

Astronomy

Aug. 30, 2014 Rise Set
Actual Time 6:56 AM EDT 8:15 PM EDT
Civil Twilight 6:27 AM EDT 8:45 PM EDT
Nautical Twilight 5:50 AM EDT 9:21 PM EDT
Astronomical Twilight 5:12 AM EDT 9:59 PM EDT
Moon 11:54 AM EDT 10:37 PM EDT
Length of Visible Light 14h 18m
Length of Day
13h 18m
Tomorrow will be 2m 54s shorter.
Waxing Crescent, 19% of the Moon is Illuminated
Today
Waxing Crescent
Sep 2
First Quarter
Sep 8
Full
Sep 15
Last Quarter
Sep 24
New

Today's Extremes

State Highs State Lows

Community

WunderPhotos

Upload Photos

1,748,462 photos uploaded!

Nearby

Air Quality

  Air Quality AQ Index Pollutant
Yesterday Good
OZONE
Yesterday Good
PM2.5
Current Moderate
PM2.5
Saturday Good
OZONE
Saturday Good
PM2.5
Sunday Good
OZONE
Sunday Good
PM2.5
Monday Good
OZONE
Monday Good
PM2.5
Tuesday Good
OZONE
Tuesday Good
PM2.5

Snow Depth

Station Depth Elevation
No new snow has been reported.

Earthquake Activity

City Distance Mag. Time & Date
No recent earthquake activity has been reported nearby.
Minimum magnitude displayed is 2.5.

Coastal Water Temperatures

Place Temperature
Harbor Beach, MI 69.1 °F

Nearby Weather Stations